Time;durP1;ratioP1;P1;durP2;ratioP2;P2;SDS_P1;SDS_P2;PMS_P1;PMS_P2;Temp;Humidity;BMP_temperature;BMP_pressure;BME280_temperature;BME280_humidity;BME280_pressure;Samples;Min_cycle;Max_cycle;Signal;HPM_P1;HPM_P2
2022/06/17 00:00:39;;;;;;;4.88;2.80;;;;;;;20.34;51.01;96556.84;10351344;28;102935;-72
2022/06/17 00:05:43;;;;;;;3.28;2.47;;;;;;;20.18;50.61;96549.25;10351218;28;97932;-72
2022/06/17 00:10:47;;;;;;;4.82;2.75;;;;;;;19.99;51.22;96550.81;10358157;28;96977;-72
2022/06/17 00:15:50;;;;;;;4.32;2.53;;;;;;;19.60;52.52;96549.63;10364639;28;98701;-72
2022/06/17 00:20:54;;;;;;;3.53;2.03;;;;;;;19.32;52.79;96536.47;10351433;28;98420;-72
2022/06/17 00:25:57;;;;;;;5.28;2.72;;;;;;;19.40;52.30;96538.94;10353831;28;98549;-72
2022/06/17 00:31:00;;;;;;;5.93;2.28;;;;;;;19.52;52.96;96541.84;10358799;28;96881;-72
2022/06/17 00:36:06;;;;;;;5.53;2.90;;;;;;;19.51;53.90;96540.22;10360294;28;97669;-72
2022/06/17 00:41:14;;;;;;;7.28;3.03;;;;;;;19.18;54.75;96535.56;10360928;28;99040;-72
2022/06/17 00:46:29;;;;;;;4.82;3.05;;;;;;;18.97;54.72;96539.09;10371775;28;98839;-72
2022/06/17 00:51:41;;;;;;;5.93;3.00;;;;;;;18.71;56.01;96551.09;10360310;28;96829;-72
2022/06/17 00:56:44;;;;;;;5.05;2.70;;;;;;;18.52;55.12;96546.44;10354326;28;96980;-72
2022/06/17 01:01:51;;;;;;;5.82;2.17;;;;;;;18.39;54.76;96555.88;10357683;28;98254;-72
2022/06/17 01:06:59;;;;;;;7.25;3.05;;;;;;;18.40;54.69;96552.22;10362888;28;98525;-72
2022/06/17 01:12:05;;;;;;;5.35;2.60;;;;;;;18.41;54.31;96553.88;10360767;28;98677;-72
2022/06/17 01:17:10;;;;;;;3.15;2.28;;;;;;;18.38;54.37;96554.25;10354799;28;98778;-72
2022/06/17 01:22:34;;;;;;;4.05;2.00;;;;;;;18.53;54.30;96556.00;10363523;28;99062;-72
2022/06/17 01:27:39;;;;;;;3.75;2.25;;;;;;;18.62;54.05;96557.50;10366728;28;96792;-72
2022/06/17 01:32:48;;;;;;;4.05;2.60;;;;;;;18.66;54.02;96556.13;10349432;28;100216;-72
2022/06/17 01:37:53;;;;;;;3.05;2.13;;;;;;;18.37;54.61;96555.25;10354492;28;98441;-72
2022/06/17 01:43:01;;;;;;;4.32;2.25;;;;;;;18.43;54.62;96549.22;10363782;28;98591;-72
2022/06/17 01:48:06;;;;;;;4.68;2.60;;;;;;;18.34;55.32;96550.34;10350014;28;98419;-72
2022/06/17 01:53:13;;;;;;;3.00;2.10;;;;;;;18.15;55.58;96564.19;10357644;28;98576;-72
2022/06/17 01:58:22;;;;;;;4.15;2.78;;;;;;;18.05;55.59;96565.31;10355180;28;96913;-72
2022/06/17 02:03:29;;;;;;;3.15;2.40;;;;;;;18.07;55.80;96571.22;10362332;28;96964;-72
2022/06/17 02:08:34;;;;;;;3.47;2.20;;;;;;;18.10;55.44;96572.69;10357132;28;96857;-72
2022/06/17 02:13:38;;;;;;;5.00;2.58;;;;;;;18.22;55.28;96584.41;10356516;28;98309;-72
2022/06/17 02:18:43;;;;;;;4.13;2.40;;;;;;;18.24;55.73;96587.69;10349207;28;98977;-72
2022/06/17 02:23:47;;;;;;;3.50;2.25;;;;;;;17.93;57.31;96587.94;10354229;28;98707;-72
2022/06/17 02:28:51;;;;;;;4.68;2.67;;;;;;;17.67;58.08;96581.28;10357789;28;97024;-72
2022/06/17 02:33:54;;;;;;;3.53;2.70;;;;;;;17.60;58.04;96580.41;10348829;28;97527;-72
2022/06/17 02:38:59;;;;;;;5.00;2.47;;;;;;;17.47;58.65;96569.66;10357623;28;97139;-72
2022/06/17 02:44:06;;;;;;;5.13;2.60;;;;;;;17.37;58.53;96577.88;10347429;28;97594;-72
2022/06/17 02:49:16;;;;;;;4.28;2.50;;;;;;;17.47;58.40;96585.50;10349826;28;98957;-72
2022/06/17 02:54:27;;;;;;;4.20;2.47;;;;;;;17.53;58.70;96595.34;10361311;28;98995;-72
2022/06/17 02:59:36;;;;;;;5.07;3.00;;;;;;;17.50;58.10;96599.16;10356982;28;98400;-72
2022/06/17 03:04:42;;;;;;;4.15;2.90;;;;;;;17.25;59.17;96606.53;10352925;28;98162;-72
2022/06/17 03:09:47;;;;;;;4.68;2.95;;;;;;;17.02;59.55;96617.13;10357487;28;100516;-72
2022/06/17 03:14:57;;;;;;;3.03;2.55;;;;;;;16.93;59.62;96621.66;10354326;28;100648;-72
2022/06/17 03:20:01;;;;;;;3.80;2.50;;;;;;;17.05;58.84;96621.25;10354405;28;98443;-72
2022/06/17 03:25:09;;;;;;;;;;;;;;;17.19;57.58;96625.72;10352460;28;98649;-72
2022/06/17 03:30:14;;;;;;;3.50;2.42;;;;;;;17.27;57.64;96628.28;10357395;28;99446;-72
2022/06/17 03:35:24;;;;;;;4.28;2.60;;;;;;;17.25;58.32;96627.66;10354716;28;97607;-72
2022/06/17 03:40:33;;;;;;;4.75;2.78;;;;;;;17.05;59.17;96632.59;10361923;28;97443;-72
2022/06/17 03:45:43;;;;;;;5.85;2.90;;;;;;;16.73;60.38;96631.03;10353940;28;97051;-72
2022/06/17 03:50:48;;;;;;;5.43;3.25;;;;;;;16.65;60.60;96628.47;10351119;28;97227;-72
2022/06/17 03:55:55;;;;;;;4.10;2.35;;;;;;;16.60;60.99;96628.97;10357515;28;97926;-72
2022/06/17 04:01:00;;;;;;;4.22;2.67;;;;;;;16.67;60.51;96637.81;10354807;28;97707;-72
2022/06/17 04:06:10;;;;;;;3.70;2.72;;;;;;;16.78;59.53;96640.09;10355567;28;98871;-72
2022/06/17 04:11:14;;;;;;;4.18;2.63;;;;;;;16.81;60.21;96633.63;10360005;28;96916;-72
2022/06/17 04:16:21;;;;;;;;;;;;;;;16.59;60.32;96649.28;10365209;28;96891;-72
2022/06/17 04:21:24;;;;;;;6.25;2.88;;;;;;;16.44;61.52;96658.94;10361472;28;98916;-72
2022/06/17 04:26:32;;;;;;;5.10;3.08;;;;;;;16.41;62.17;96659.25;10354241;28;96961;-72
2022/06/17 04:31:35;;;;;;;4.25;2.70;;;;;;;16.58;60.77;96652.88;10359511;28;96915;-72
2022/06/17 04:36:44;;;;;;;4.25;2.50;;;;;;;16.84;60.32;96649.13;10357340;28;97190;-72
2022/06/17 04:41:51;;;;;;;3.25;2.50;;;;;;;16.83;60.52;96667.75;10362240;28;98978;-72
2022/06/17 04:46:58;;;;;;;6.43;2.60;;;;;;;16.89;60.42;96665.25;10355592;28;96894;-72
2022/06/17 04:52:06;;;;;;;4.65;2.80;;;;;;;17.05;59.94;96668.75;10356568;28;97747;-72
2022/06/17 04:57:14;;;;;;;3.97;2.67;;;;;;;17.16;60.25;96668.31;10368497;28;96853;-72
2022/06/17 05:02:20;;;;;;;4.97;2.75;;;;;;;17.40;59.43;96669.91;10353280;28;98127;-72
2022/06/17 05:07:23;;;;;;;5.18;2.60;;;;;;;17.66;58.71;96672.13;10351364;28;98814;-72
2022/06/17 05:12:32;;;;;;;3.17;2.72;;;;;;;17.87;58.69;96675.88;10364720;28;96938;-72
2022/06/17 05:17:35;;;;;;;4.43;2.58;;;;;;;18.00;59.34;96678.72;10346516;28;99130;-72
2022/06/17 05:22:42;;;;;;;4.28;3.00;;;;;;;18.17;59.17;96678.50;10357674;28;102111;-72
2022/06/17 05:27:47;;;;;;;3.65;2.50;;;;;;;18.39;58.93;96674.09;10361072;28;100651;-72
2022/06/17 05:32:51;;;;;;;;;;;;;;;18.59;58.49;96680.44;10350013;28;98416;-72
2022/06/17 05:37:54;;;;;;;4.03;2.70;;;;;;;18.75;58.14;96679.38;10356536;28;98484;-72
2022/06/17 05:42:59;;;;;;;4.13;2.67;;;;;;;18.96;57.80;96680.41;10368485;28;98778;-72
2022/06/17 05:48:02;;;;;;;5.45;2.88;;;;;;;19.18;57.55;96682.03;10358837;28;97215;-72
2022/06/17 05:53:07;;;;;;;5.47;3.10;;;;;;;19.42;57.43;96690.59;10353473;28;99398;-72
2022/06/17 05:58:11;;;;;;;3.50;2.88;;;;;;;19.58;57.05;96689.47;10360002;28;97671;-72
2022/06/17 06:03:19;;;;;;;6.90;3.13;;;;;;;19.75;57.19;96695.31;10355722;28;96811;-72
2022/06/17 06:08:22;;;;;;;6.00;3.33;;;;;;;19.93;55.90;96698.28;10358771;28;99050;-73
2022/06/17 06:13:27;;;;;;;5.28;3.67;;;;;;;20.14;56.59;96715.13;10360589;28;97991;-72
2022/06/17 06:18:33;;;;;;;4.05;2.92;;;;;;;20.36;56.99;96726.44;10357164;28;98368;-72
2022/06/17 06:23:38;;;;;;;6.50;3.20;;;;;;;20.57;55.71;96725.50;10354237;28;96857;-73
2022/06/17 06:28:43;;;;;;;3.53;2.63;;;;;;;20.77;54.61;96730.09;10360621;28;97238;-73
2022/06/17 06:33:46;;;;;;;4.78;3.45;;;;;;;20.92;54.40;96738.72;10358782;28;99086;-72
2022/06/17 06:38:49;;;;;;;7.68;3.80;;;;;;;21.10;53.66;96738.97;10356359;28;96933;-73
2022/06/17 06:43:54;;;;;;;5.27;3.10;;;;;;;21.28;54.00;96732.25;10360303;28;98362;-72
2022/06/17 06:48:57;;;;;;;;;;;;;;;21.47;53.34;96736.75;10353533;28;98910;-72
2022/06/17 06:54:00;;;;;;;5.15;2.85;;;;;;;21.64;52.71;96733.69;10360887;28;97069;-72
2022/06/17 06:59:04;;;;;;;4.65;2.50;;;;;;;21.81;52.18;96747.38;10361814;28;97081;-73
2022/06/17 07:04:08;;;;;;;4.60;2.90;;;;;;;21.99;51.30;96744.09;10350417;28;98051;-72
2022/06/17 07:09:12;;;;;;;5.15;2.60;;;;;;;22.09;50.86;96735.66;10345738;28;96767;-73
2022/06/17 07:14:16;;;;;;;5.90;3.10;;;;;;;22.22;50.84;96727.66;10353731;28;96864;-73
2022/06/17 07:19:19;;;;;;;;;;;;;;;22.38;50.95;96721.06;10334790;28;97240;-73
2022/06/17 07:24:22;;;;;;;3.88;2.50;;;;;;;22.53;50.11;96726.97;10344499;28;97931;-73
2022/06/17 07:29:27;;;;;;;6.63;2.80;;;;;;;22.68;49.63;96715.22;10343879;28;97968;-73
2022/06/17 07:34:30;;;;;;;5.53;2.58;;;;;;;22.87;49.73;96719.59;10351218;28;96786;-73
2022/06/17 07:44:55;;;;;;;6.70;2.90;;;;;;;23.16;47.61;96717.38;10354377;28;97026;-73
2022/06/17 07:49:58;;;;;;;3.67;2.88;;;;;;;23.36;47.31;96723.44;10359115;28;97364;-73
2022/06/17 07:55:01;;;;;;;7.77;3.23;;;;;;;23.49;46.39;96727.00;10357421;28;96748;-73
2022/06/17 08:00:08;;;;;;;4.53;2.72;;;;;;;23.63;45.91;96727.72;10351826;28;96963;-73
2022/06/17 08:05:11;;;;;;;4.97;2.90;;;;;;;23.64;45.77;96716.03;10356611;28;99137;-73
2022/06/17 08:10:17;;;;;;;4.90;2.92;;;;;;;23.73;45.58;96707.50;10362561;28;96770;-73
2022/06/17 08:15:22;;;;;;;6.03;3.20;;;;;;;23.77;45.10;96701.75;10365027;28;97791;-73
2022/06/17 08:20:29;;;;;;;5.18;2.80;;;;;;;23.85;45.22;96693.47;10368757;28;97000;-73
2022/06/17 08:25:32;;;;;;;6.85;2.78;;;;;;;24.06;45.37;96690.38;10347095;28;96816;-73
2022/06/17 08:30:40;;;;;;;5.93;3.07;;;;;;;24.22;43.63;96690.81;10350022;28;98958;-73
2022/06/17 08:35:48;;;;;;;8.65;3.08;;;;;;;24.31;44.21;96702.81;10360432;28;96870;-72
2022/06/17 08:40:57;;;;;;;4.35;2.70;;;;;;;24.46;43.05;96700.59;10347362;28;96727;-73
2022/06/17 08:46:20;;;;;;;4.60;2.72;;;;;;;24.63;42.99;96691.97;10350270;28;97486;-73
2022/06/17 08:51:37;;;;;;;7.30;3.00;;;;;;;24.54;43.39;96682.63;10357673;28;97088;-73
2022/06/17 08:56:48;;;;;;;5.20;3.03;;;;;;;24.68;42.59;96678.75;10351545;28;97004;-73
2022/06/17 09:01:59;;;;;;;5.35;2.67;;;;;;;24.74;42.57;96680.50;10346380;28;96812;-73
2022/06/17 09:07:15;;;;;;;4.85;2.90;;;;;;;24.86;42.81;96668.03;10356927;28;97234;-73
2022/06/17 09:12:30;;;;;;;5.00;3.08;;;;;;;25.04;42.93;96660.97;10350489;28;96901;-73
2022/06/17 09:17:47;;;;;;;4.35;2.70;;;;;;;25.18;42.53;96665.09;10349256;28;96722;-73
2022/06/17 09:22:55;;;;;;;4.65;3.10;;;;;;;25.27;42.29;96670.09;10363482;28;96978;-73
2022/06/17 09:27:59;;;;;;;3.47;2.70;;;;;;;25.36;42.18;96674.06;10355752;28;97122;-73
2022/06/17 09:33:12;;;;;;;4.22;2.78;;;;;;;25.46;41.87;96670.81;10359394;28;97063;-73
2022/06/17 09:38:21;;;;;;;6.07;2.80;;;;;;;25.53;41.82;96672.34;10356973;28;96835;-73
2022/06/17 09:43:31;;;;;;;4.18;3.05;;;;;;;25.54;41.60;96673.97;10347896;28;97195;-73
2022/06/17 09:48:43;;;;;;;4.68;2.92;;;;;;;25.64;41.25;96672.59;10358473;27;96919;-73
2022/06/17 09:53:52;;;;;;;5.07;2.92;;;;;;;25.76;41.27;96676.09;10366579;27;97171;-73
2022/06/17 09:59:01;;;;;;;5.63;3.13;;;;;;;25.85;41.67;96679.22;10349649;28;96744;-73
2022/06/17 10:04:09;;;;;;;5.82;2.65;;;;;;;25.90;41.57;96672.09;10352503;28;96985;-73
2022/06/17 10:09:45;;;;;;;6.82;2.83;;;;;;;25.98;40.73;96678.94;10357155;28;96775;-74
2022/06/17 10:14:57;;;;;;;5.70;2.80;;;;;;;26.13;40.74;96691.84;10370536;28;96975;-73
2022/06/17 10:20:15;;;;;;;4.63;2.90;;;;;;;26.31;40.39;96682.88;10351441;28;96979;-73
2022/06/17 10:25:32;;;;;;;5.22;2.67;;;;;;;26.53;39.71;96691.91;10345364;28;96822;-73
2022/06/17 10:30:40;;;;;;;3.55;2.20;;;;;;;26.66;39.20;96682.78;10355914;27;96817;-73
2022/06/17 10:35:47;;;;;;;4.82;2.88;;;;;;;26.80;38.51;96669.91;10355480;28;97956;-73
2022/06/17 10:40:50;;;;;;;6.68;2.88;;;;;;;26.92;38.16;96661.81;10347503;28;96934;-74
2022/06/17 10:45:54;;;;;;;;;;;;;;;27.00;38.63;96663.28;10348374;28;98371;-74
2022/06/17 10:50:59;;;;;;;4.57;3.00;;;;;;;27.13;38.23;96665.66;10356855;28;96782;-73
2022/06/17 10:56:09;;;;;;;5.10;2.60;;;;;;;27.18;37.82;96654.19;10344950;28;96997;-73
2022/06/17 11:01:15;;;;;;;6.47;2.83;;;;;;;27.36;37.34;96663.88;10342257;28;96970;-73
2022/06/17 11:06:21;;;;;;;5.40;2.70;;;;;;;27.50;36.99;96660.59;10334467;28;97005;-73
2022/06/17 11:16:54;;;;;;;5.57;2.67;;;;;;;27.76;36.45;96657.53;10350284;28;96694;-73
2022/06/17 11:22:02;;;;;;;4.35;2.50;;;;;;;27.79;35.83;96647.09;10360557;28;96822;-73
2022/06/17 11:27:09;;;;;;;4.40;2.63;;;;;;;27.94;35.45;96648.38;10368001;28;96989;-73
2022/06/17 11:32:26;;;;;;;4.22;2.33;;;;;;;28.22;34.72;96644.69;10369281;28;96765;-73
2022/06/17 11:37:34;;;;;;;3.28;2.00;;;;;;;28.31;33.13;96639.72;10365199;28;96998;-73
2022/06/17 11:42:46;;;;;;;5.07;2.25;;;;;;;28.33;34.09;96637.59;10341687;28;97254;-73
2022/06/17 11:47:55;;;;;;;4.50;2.45;;;;;;;28.56;33.68;96631.94;10365192;28;97051;-73
2022/06/17 11:53:11;;;;;;;3.95;1.95;;;;;;;28.72;32.17;96629.41;10359683;28;96755;-73
2022/06/17 11:58:17;;;;;;;3.08;2.10;;;;;;;28.82;31.81;96620.63;10343063;28;97714;-73
2022/06/17 12:03:22;;;;;;;4.93;2.28;;;;;;;28.98;31.81;96628.63;10358000;28;97629;-73
2022/06/17 12:08:32;;;;;;;3.05;2.05;;;;;;;29.01;29.79;96621.91;10359044;28;97009;-73
2022/06/17 12:13:37;;;;;;;5.10;2.10;;;;;;;29.11;29.48;96615.81;10349224;28;97128;-73
2022/06/17 12:18:45;;;;;;;5.20;1.92;;;;;;;29.31;29.07;96605.16;10361849;28;101180;-73
2022/06/17 12:23:53;;;;;;;3.25;2.25;;;;;;;29.50;29.62;96607.44;10351500;28;97466;-73
2022/06/17 12:29:05;;;;;;;5.13;2.40;;;;;;;29.55;30.17;96597.56;10345933;28;96940;-73
2022/06/17 12:34:16;;;;;;;3.90;2.20;;;;;;;29.70;29.74;96613.00;10356395;28;98721;-73
2022/06/17 12:39:30;;;;;;;4.40;2.28;;;;;;;29.80;30.26;96598.78;10342089;28;97049;-74
2022/06/17 12:44:43;;;;;;;5.07;2.40;;;;;;;29.67;31.39;96591.97;10353741;28;98623;-74
2022/06/17 12:55:28;;;;;;;4.72;1.98;;;;;;;29.74;31.21;96580.97;10357592;28;96899;-73
2022/06/17 13:00:37;;;;;;;;;;;;;;;30.06;31.08;96566.53;10346641;28;99392;-73
2022/06/17 13:05:43;;;;;;;4.75;1.90;;;;;;;30.29;29.69;96576.09;10353658;28;97145;-73
2022/06/17 13:10:56;;;;;;;5.07;2.33;;;;;;;30.54;29.12;96567.22;10368518;28;99327;-73
2022/06/17 13:16:01;;;;;;;4.53;2.20;;;;;;;30.57;29.61;96565.91;10358635;28;96744;-73
2022/06/17 13:21:08;;;;;;;3.72;2.13;;;;;;;30.85;30.05;96551.91;10342742;28;97796;-74
2022/06/17 13:26:18;;;;;;;4.00;2.40;;;;;;;31.09;30.53;96545.16;10352145;28;97438;-73
2022/06/17 13:31:26;;;;;;;6.68;2.40;;;;;;;31.20;30.42;96562.94;10353577;28;96977;-73
2022/06/17 13:36:33;;;;;;;6.03;2.67;;;;;;;31.37;29.61;96543.78;10352391;28;96941;-74
2022/06/17 13:41:45;;;;;;;4.45;2.40;;;;;;;31.43;30.16;96539.97;10347631;28;96778;-73
2022/06/17 13:46:54;;;;;;;5.07;2.50;;;;;;;31.41;30.06;96542.97;10351041;28;97542;-73
2022/06/17 13:52:04;;;;;;;4.68;2.40;;;;;;;31.43;30.21;96539.97;10357556;28;97076;-73
2022/06/17 13:57:16;;;;;;;5.57;2.42;;;;;;;31.76;29.54;96538.53;10361032;28;98505;-73
2022/06/17 14:02:29;;;;;;;4.77;2.20;;;;;;;32.02;29.08;96534.94;10353867;28;96870;-74
2022/06/17 14:07:57;;;;;;;5.73;2.60;;;;;;;32.69;28.93;96525.31;10358048;28;96831;-74
2022/06/17 14:13:14;;;;;;;3.85;2.60;;;;;;;33.47;26.96;96523.53;10351989;28;98684;-74
2022/06/17 14:18:22;;;;;;;5.07;1.92;;;;;;;34.46;26.00;96531.28;10347433;28;97188;-74
2022/06/17 14:23:51;;;;;;;4.13;2.05;;;;;;;35.47;23.38;96529.88;10345071;28;97193;-73
2022/06/17 14:29:13;;;;;;;2.35;1.40;;;;;;;36.47;22.36;96536.50;10345763;28;98456;-74
2022/06/17 14:34:18;;;;;;;3.53;1.55;;;;;;;37.29;21.31;96532.63;10352940;28;97001;-73
2022/06/17 14:39:29;;;;;;;4.15;1.70;;;;;;;38.26;20.93;96526.38;10343600;28;96998;-74
2022/06/17 14:44:37;;;;;;;3.67;1.50;;;;;;;38.81;20.36;96530.41;10342481;28;97077;-74
2022/06/17 14:49:42;;;;;;;4.88;1.75;;;;;;;39.19;19.78;96517.94;10348521;28;96793;-74
2022/06/17 14:54:45;;;;;;;3.60;1.70;;;;;;;39.48;19.28;96527.34;10356407;28;96929;-74
2022/06/17 14:59:50;;;;;;;3.67;1.67;;;;;;;39.48;19.57;96513.66;10354838;28;99434;-74
2022/06/17 15:04:56;;;;;;;2.22;1.42;;;;;;;39.47;19.17;96512.84;10350782;28;98374;-74
2022/06/17 15:10:02;;;;;;;2.47;1.15;;;;;;;39.55;19.11;96517.47;10352570;28;98972;-74
2022/06/17 15:15:12;;;;;;;3.85;1.30;;;;;;;39.57;18.30;96503.47;10353625;28;97020;-74
2022/06/17 15:20:18;;;;;;;3.80;1.47;;;;;;;39.55;18.04;96506.53;10356656;28;96903;-74
2022/06/17 15:25:39;;;;;;;3.13;1.50;;;;;;;39.46;17.94;96500.31;10346001;28;98969;-74
2022/06/17 15:30:45;;;;;;;5.15;1.45;;;;;;;39.53;17.83;96492.41;10353252;28;100469;-74
2022/06/17 15:35:55;;;;;;;2.65;1.20;;;;;;;39.72;17.50;96486.53;10344314;28;100466;-74
2022/06/17 15:41:19;;;;;;;1.70;0.93;;;;;;;39.67;16.92;96485.94;10349112;28;98566;-74
2022/06/17 15:46:27;;;;;;;2.63;1.30;;;;;;;39.65;17.32;96491.75;10350308;28;97771;-74
2022/06/17 15:51:33;;;;;;;3.70;1.30;;;;;;;39.50;17.59;96484.84;10346598;28;97048;-74
2022/06/17 15:56:44;;;;;;;2.17;1.23;;;;;;;39.28;17.83;96477.75;10350240;28;100191;-74
2022/06/17 16:01:54;;;;;;;1.65;1.33;;;;;;;39.31;18.04;96470.81;10357718;28;98838;-74
2022/06/17 16:07:09;;;;;;;4.27;1.43;;;;;;;40.04;17.75;96478.00;10348885;28;99271;-74
2022/06/17 16:12:33;;;;;;;2.03;1.30;;;;;;;40.52;16.95;96476.66;10354192;28;99187;-74
2022/06/17 16:17:39;;;;;;;3.85;1.33;;;;;;;40.55;17.52;96473.25;10347225;28;97382;-74
2022/06/17 16:22:43;;;;;;;2.03;1.20;;;;;;;40.77;17.46;96472.06;10354110;28;98395;-74
2022/06/17 16:27:50;;;;;;;2.03;1.30;;;;;;;40.75;17.61;96473.53;10363649;28;102285;-74
2022/06/17 16:33:01;;;;;;;3.65;1.58;;;;;;;40.90;17.43;96462.72;10353885;28;98489;-74
2022/06/17 16:38:04;;;;;;;3.50;1.67;;;;;;;40.73;18.16;96462.91;10361330;28;98456;-74
2022/06/17 16:48:59;;;;;;;3.40;1.40;;;;;;;40.71;17.72;96459.72;10353735;28;96815;-74
2022/06/17 16:54:03;;;;;;;2.05;1.60;;;;;;;40.44;18.08;96461.09;10363777;27;98760;-74
2022/06/17 16:59:06;;;;;;;2.28;1.52;;;;;;;40.25;18.66;96464.31;10353358;28;99176;-74
2022/06/17 17:04:10;;;;;;;5.18;1.67;;;;;;;39.95;18.31;96461.63;10366040;28;98624;-74
2022/06/17 17:09:13;;;;;;;4.40;1.77;;;;;;;39.83;18.37;96459.59;10358552;28;97007;-74
2022/06/17 17:14:16;;;;;;;5.22;1.58;;;;;;;39.64;18.68;96462.78;10357415;28;98344;-75
2022/06/17 17:19:21;;;;;;;2.50;1.50;;;;;;;39.53;18.88;96450.59;10366449;28;97615;-74
2022/06/17 17:24:27;;;;;;;2.92;1.35;;;;;;;39.58;18.18;96453.19;10353472;28;97587;-74
2022/06/17 17:29:33;;;;;;;5.40;1.77;;;;;;;39.83;17.92;96464.28;10347606;28;97011;-75
2022/06/17 17:34:42;;;;;;;3.13;1.58;;;;;;;39.91;18.49;96464.22;10353171;28;96894;-74
2022/06/17 17:39:45;;;;;;;2.95;1.80;;;;;;;39.80;18.61;96466.56;10340343;28;97243;-74
2022/06/17 17:44:48;;;;;;;4.20;1.60;;;;;;;39.46;18.72;96466.72;10360216;28;97567;-75
2022/06/17 17:49:53;;;;;;;4.10;1.80;;;;;;;38.83;19.97;96459.06;10355303;28;97073;-74
2022/06/17 17:54:56;;;;;;;4.72;1.90;;;;;;;38.60;19.93;96448.31;10375670;28;96710;-74
2022/06/17 18:00:00;;;;;;;4.20;1.83;;;;;;;38.29;20.50;96454.78;10365392;28;97002;-74
2022/06/17 18:05:06;;;;;;;3.83;1.90;;;;;;;37.65;21.63;96463.50;10346323;28;99796;-75
2022/06/17 18:10:10;;;;;;;4.38;1.63;;;;;;;37.01;22.35;96464.69;10366109;27;96955;-74
2022/06/17 18:15:14;;;;;;;3.63;2.40;;;;;;;36.21;23.66;96472.63;10343962;28;96816;-74
2022/06/17 18:20:21;;;;;;;3.20;2.00;;;;;;;35.18;25.02;96487.44;10357701;28;96752;-74
2022/06/17 18:25:25;;;;;;;3.15;1.80;;;;;;;34.29;25.62;96491.91;10367288;28;96838;-74
2022/06/17 18:30:28;;;;;;;4.35;1.90;;;;;;;33.49;26.21;96496.16;10357174;28;100503;-74
2022/06/17 18:35:40;;;;;;;4.22;2.22;;;;;;;32.85;27.55;96498.16;10356954;28;97118;-74
2022/06/17 18:40:43;;;;;;;6.03;2.00;;;;;;;32.09;29.05;96490.31;10343495;28;97454;-74
2022/06/17 18:45:49;;;;;;;2.65;2.45;;;;;;;31.46;29.54;96485.44;10336272;28;97560;-72
2022/06/17 18:50:55;;;;;;;4.90;2.15;;;;;;;31.18;29.92;96489.56;10355888;28;96949;-76
2022/06/17 18:55:58;;;;;;;4.00;2.42;;;;;;;30.94;30.83;96490.13;10339540;28;97427;-74
2022/06/17 19:01:03;;;;;;;5.45;2.72;;;;;;;30.62;31.67;96488.53;10340963;28;96740;-73
2022/06/17 19:06:10;;;;;;;4.10;2.38;;;;;;;30.32;32.88;96489.28;10361155;28;96980;-75
2022/06/17 19:21:59;;;;;;;4.18;2.50;;;;;;;29.13;32.41;96500.69;10350962;28;96814;-75
2022/06/17 19:27:01;;;;;;;6.07;2.90;;;;;;;28.90;32.20;96502.66;10346871;28;102098;-71
2022/06/17 19:32:06;;;;;;;2.42;2.10;;;;;;;28.60;32.57;96514.81;10351751;28;98856;-70
2022/06/17 19:37:14;;;;;;;4.70;2.50;;;;;;;28.40;31.86;96506.56;10356345;28;97863;-71
2022/06/17 19:42:19;;;;;;;3.90;2.30;;;;;;;28.30;31.43;96515.31;10356114;28;97105;-70
2022/06/17 19:47:23;;;;;;;4.97;2.28;;;;;;;28.17;31.44;96531.84;10356418;28;96986;-70
2022/06/17 19:52:30;;;;;;;4.13;2.22;;;;;;;27.95;31.57;96539.91;10361697;28;97806;-74
2022/06/17 19:57:33;;;;;;;4.75;2.60;;;;;;;27.80;31.97;96535.16;10371698;28;97971;-72
2022/06/17 20:02:40;;;;;;;6.43;2.50;;;;;;;27.67;32.12;96544.41;10352139;28;97757;-73
2022/06/17 20:07:45;;;;;;;3.58;2.45;;;;;;;27.60;32.14;96549.13;10356811;28;97126;-73
2022/06/17 20:12:51;;;;;;;3.90;2.40;;;;;;;27.47;32.35;96561.03;10339899;28;97586;-72
2022/06/17 20:17:56;;;;;;;4.55;2.45;;;;;;;27.34;32.51;96556.81;10349862;28;96878;-72
2022/06/17 20:23:00;;;;;;;4.18;3.00;;;;;;;27.21;32.78;96562.53;10348431;28;96693;-72
2022/06/17 20:28:04;;;;;;;5.90;2.80;;;;;;;27.17;33.16;96572.94;10355457;28;96981;-73
2022/06/17 20:33:08;;;;;;;3.45;2.45;;;;;;;27.15;33.02;96579.63;10353288;28;102684;-71
2022/06/17 20:38:16;;;;;;;3.80;2.25;;;;;;;27.07;32.91;96578.94;10355813;28;97075;-72
2022/06/17 20:43:19;;;;;;;4.60;2.40;;;;;;;27.02;32.71;96592.31;10355950;28;96792;-75
2022/06/17 20:53:45;;;;;;;6.65;2.83;;;;;;;26.95;33.52;96596.97;10367607;28;97037;-69
2022/06/17 20:58:48;;;;;;;4.45;2.70;;;;;;;26.87;33.68;96594.69;10362728;28;98114;-73
2022/06/17 21:03:52;;;;;;;;;;;;;;;26.79;33.47;96593.22;10340889;28;96942;-71
2022/06/17 21:08:56;;;;;;;5.00;2.50;;;;;;;26.69;33.83;96593.03;10350677;28;96921;-70
2022/06/17 21:13:59;;;;;;;3.65;2.83;;;;;;;26.64;33.32;96609.84;10365496;28;97078;-70
2022/06/17 21:19:01;;;;;;;4.57;3.27;;;;;;;26.63;32.80;96600.19;10358765;28;96913;-72
2022/06/17 21:24:10;;;;;;;7.90;2.72;;;;;;;26.51;33.03;96607.47;10362273;28;96938;-72
2022/06/17 21:29:13;;;;;;;4.80;2.50;;;;;;;26.40;32.79;96605.63;10386205;28;96851;-72
2022/06/17 21:34:16;;;;;;;3.85;2.40;;;;;;;26.22;33.16;96618.13;10348035;28;96858;-74
2022/06/17 21:39:24;;;;;;;3.37;2.33;;;;;;;26.00;33.55;96608.09;10359207;28;96891;-72
2022/06/17 21:44:27;;;;;;;7.68;4.93;;;;;;;25.70;34.26;96610.91;10371553;28;98036;-73
2022/06/17 21:49:31;;;;;;;5.78;2.50;;;;;;;25.40;34.79;96613.72;10371545;28;96960;-72
2022/06/17 21:54:38;;;;;;;3.80;2.65;;;;;;;25.34;34.50;96611.97;10363947;28;96824;-73
2022/06/17 21:59:45;;;;;;;11.32;8.95;;;;;;;25.25;34.63;96611.50;10370815;28;97648;-71
2022/06/17 22:04:49;;;;;;;3.70;2.20;;;;;;;25.12;34.44;96593.81;10363962;28;97047;-71
2022/06/17 22:09:55;;;;;;;3.33;2.40;;;;;;;25.01;34.33;96605.34;10353279;28;96721;-72
2022/06/17 22:14:58;;;;;;;3.00;2.40;;;;;;;24.83;35.66;96607.03;10357178;28;98746;-72
2022/06/17 22:20:01;;;;;;;4.53;3.20;;;;;;;24.63;37.29;96614.50;10364503;28;98032;-66
2022/06/17 22:25:14;;;;;;;4.53;3.90;;;;;;;24.41;38.32;96609.66;10373664;28;98387;-71
2022/06/17 22:30:19;;;;;;;3.90;3.05;;;;;;;24.18;38.38;96615.72;10370066;28;97277;-71
2022/06/17 22:35:25;;;;;;;6.63;4.57;;;;;;;23.99;39.70;96608.75;10357107;28;98904;-70
2022/06/17 22:40:32;;;;;;;6.93;3.30;;;;;;;23.68;40.26;96614.00;10345089;28;97007;-71
2022/06/17 22:45:39;;;;;;;8.32;3.58;;;;;;;23.49;40.90;96612.38;10364896;28;98566;-71
2022/06/17 22:50:45;;;;;;;4.32;3.80;;;;;;;23.17;41.55;96621.22;10363566;28;98870;-72
2022/06/17 22:55:51;;;;;;;6.30;3.42;;;;;;;22.87;41.94;96623.72;10370892;28;97140;-71
2022/06/17 23:00:56;;;;;;;7.18;3.70;;;;;;;22.77;41.99;96618.06;10368247;28;96735;-72
2022/06/17 23:06:02;;;;;;;5.18;3.75;;;;;;;22.53;41.54;96623.13;10363491;28;96771;-71
2022/06/17 23:11:06;;;;;;;7.95;3.63;;;;;;;22.37;42.01;96616.44;10361970;28;98113;-73
2022/06/17 23:16:11;;;;;;;3.92;3.25;;;;;;;22.27;42.01;96601.97;10389987;28;96923;-73
2022/06/17 23:21:23;;;;;;;4.40;3.28;;;;;;;22.18;42.26;96598.69;10373596;27;97940;-71
2022/06/17 23:26:29;;;;;;;5.85;3.10;;;;;;;22.20;42.71;96597.47;10370173;28;97524;-71
2022/06/17 23:31:34;;;;;;;7.57;3.08;;;;;;;22.16;42.77;96601.59;10371763;28;97041;-71
2022/06/17 23:36:37;;;;;;;5.07;3.50;;;;;;;22.13;42.95;96596.69;10370488;28;97354;-71
2022/06/17 23:41:43;;;;;;;5.50;3.22;;;;;;;21.96;44.29;96599.00;10365890;28;98523;-71
2022/06/17 23:46:46;;;;;;;4.60;2.63;;;;;;;21.86;44.44;96606.63;10368507;28;96918;-71
2022/06/17 23:51:51;;;;;;;3.58;3.17;;;;;;;21.75;44.23;96605.44;10368582;28;98007;-71
2022/06/17 23:56:57;;;;;;;4.72;3.67;;;;;;;21.58;45.74;96612.19;10365571;28;97016;-71
